Time;durP1;ratioP1;P1;durP2;ratioP2;P2;SDS_P1;SDS_P2;PMS_P1;PMS_P2;Temp;Humidity;BMP_temperature;BMP_pressure;BME280_temperature;BME280_humidity;BME280_pressure;Samples;Min_cycle;Max_cycle;Signal;HPM_P1;HPM_P2
2022/04/04 00:00:53;;;;;;;;;;;8.30;67.90;;;;;;4997794;28;20282;-63
2022/04/04 00:03:18;;;;;;;;;;;8.40;67.50;;;;;;4998051;28;20274;-66
2022/04/04 00:05:44;;;;;;;;;;;8.40;67.80;;;;;;4998268;28;19910;-61
2022/04/04 00:08:10;;;;;;;;;;;8.40;68.10;;;;;;4998548;28;19921;-57
2022/04/04 00:10:36;;;;;;;;;;;8.40;66.60;;;;;;4997929;28;19910;-59
2022/04/04 00:13:01;;;;;;;;;;;8.40;68.30;;;;;;4997539;28;19980;-62
2022/04/04 00:15:27;;;;;;;;;;;8.30;68.80;;;;;;4997130;28;19948;-60
2022/04/04 00:17:55;;;;;;;;;;;8.30;68.90;;;;;;4997328;28;19961;-61
2022/04/04 00:20:21;;;;;;;;;;;8.30;67.90;;;;;;4997426;28;19976;-62
2022/04/04 00:22:46;;;;;;;;;;;8.30;68.10;;;;;;4997999;28;19910;-59
2022/04/04 00:25:12;;;;;;;;;;;8.40;68.20;;;;;;5003304;28;19925;-64
2022/04/04 00:27:37;;;;;;;;;;;8.40;68.60;;;;;;5010985;28;19910;-62
2022/04/04 00:30:03;;;;;;;;;;;8.40;68.30;;;;;;5011417;28;19996;-57
2022/04/04 00:32:29;;;;;;;;;;;8.40;68.40;;;;;;5010059;28;19910;-61
2022/04/04 00:34:54;;;;;;;;;;;8.30;68.60;;;;;;5007871;28;20293;-58
2022/04/04 00:37:20;;;;;;;;;;;8.30;69.80;;;;;;4999225;28;19918;-63
2022/04/04 00:39:46;;;;;;;;;;;8.30;69.80;;;;;;4999458;28;20332;-63
2022/04/04 00:42:14;;;;;;;;;;;8.30;69.10;;;;;;4999772;28;20429;-66
2022/04/04 00:44:40;;;;;;;;;;;8.30;69.80;;;;;;4999223;28;19921;-64
2022/04/04 00:47:07;;;;;;;;;;;8.30;70.00;;;;;;5009659;28;19910;-65
2022/04/04 00:49:33;;;;;;;;;;;8.30;70.00;;;;;;5006412;28;19949;-64
2022/04/04 00:51:58;;;;;;;;;;;8.30;69.50;;;;;;5006902;28;20412;-65
2022/04/04 00:54:24;;;;;;;;;;;8.30;69.20;;;;;;5008182;28;19925;-62
2022/04/04 00:56:50;;;;;;;;;;;8.30;69.30;;;;;;5006649;28;19910;-60
2022/04/04 00:59:16;;;;;;;;;;;8.30;69.20;;;;;;5005982;28;19910;-58
2022/04/04 01:01:43;;;;;;;;;;;8.30;68.50;;;;;;5005772;28;19922;-59
2022/04/04 01:04:09;;;;;;;;;;;8.30;68.50;;;;;;5006686;28;19914;-58
2022/04/04 01:06:35;;;;;;;;;;;8.40;67.90;;;;;;5005893;28;19909;-61
2022/04/04 01:09:02;;;;;;;;;;;8.40;68.30;;;;;;5005604;28;19914;-57
2022/04/04 01:11:28;;;;;;;;;;;8.50;65.30;;;;;;5003218;28;20316;-58
2022/04/04 01:13:53;;;;;;;;;;;8.60;62.30;;;;;;5002047;28;19996;-59
2022/04/04 01:16:19;;;;;;;;;;;8.70;59.60;;;;;;5000556;28;19910;-57
2022/04/04 01:18:44;;;;;;;;;;;8.70;60.40;;;;;;4996766;28;20285;-58
2022/04/04 01:21:10;;;;;;;;;;;8.80;61.60;;;;;;4997189;28;19932;-59
2022/04/04 01:23:40;;;;;;;;;;;8.90;60.00;;;;;;4996969;28;19996;-58
2022/04/04 01:26:06;;;;;;;;;;;8.80;59.20;;;;;;4997457;28;20053;-58
2022/04/04 01:28:32;;;;;;;;;;;8.90;58.90;;;;;;4997049;28;20317;-61
2022/04/04 01:30:58;;;;;;;;;;;8.90;60.30;;;;;;4996219;28;19910;-59
2022/04/04 01:33:23;;;;;;;;;;;8.80;61.20;;;;;;4995787;28;20394;-59
2022/04/04 01:35:49;;;;;;;;;;;8.80;61.60;;;;;;4995939;28;19921;-64
2022/04/04 01:38:14;;;;;;;;;;;8.80;61.20;;;;;;4995898;28;19914;-59
2022/04/04 01:40:40;;;;;;;;;;;8.80;61.60;;;;;;4996959;28;19922;-58
2022/04/04 01:43:05;;;;;;;;;;;8.80;62.60;;;;;;5000574;28;19980;-61
2022/04/04 01:48:38;;;;;;;;;;;8.60;62.50;;;;;;4984270;28;19957;-57
2022/04/04 01:51:04;;;;;;;;;;;8.60;62.40;;;;;;4995856;28;19910;-58
2022/04/04 01:53:31;;;;;;;;;;;8.60;62.90;;;;;;4995409;28;19917;-62
2022/04/04 01:55:58;;;;;;;;;;;8.50;63.80;;;;;;4995676;28;19913;-58
2022/04/04 01:58:24;;;;;;;;;;;8.30;64.20;;;;;;4995942;28;19917;-58
2022/04/04 02:00:50;;;;;;;;;;;8.20;64.10;;;;;;4996169;28;19929;-58
2022/04/04 02:03:16;;;;;;;;;;;8.20;63.20;;;;;;4996039;28;20282;-59
2022/04/04 02:05:41;;;;;;;;;;;8.20;62.00;;;;;;4995642;28;19937;-58
2022/04/04 02:08:07;;;;;;;;;;;8.20;62.10;;;;;;4995714;28;20345;-57
2022/04/04 02:10:32;;;;;;;;;;;8.20;62.10;;;;;;4995330;28;20378;-60
2022/04/04 02:12:58;;;;;;;;;;;8.40;61.90;;;;;;4995476;28;19909;-58
2022/04/04 02:15:24;;;;;;;;;;;8.50;59.70;;;;;;4995482;28;20278;-58
2022/04/04 02:17:50;;;;;;;;;;;8.60;59.20;;;;;;4995757;28;20277;-58
2022/04/04 02:20:16;;;;;;;;;;;8.60;57.50;;;;;;4996118;28;19940;-58
2022/04/04 02:22:42;;;;;;;;;;;8.60;57.60;;;;;;4996021;28;20357;-58
2022/04/04 02:25:08;;;;;;;;;;;8.70;57.20;;;;;;4995894;28;20365;-58
2022/04/04 02:27:34;;;;;;;;;;;8.80;57.10;;;;;;4995906;28;19937;-58
2022/04/04 02:29:59;;;;;;;;;;;8.80;56.10;;;;;;4995356;28;20282;-59
2022/04/04 02:32:25;;;;;;;;;;;8.80;56.30;;;;;;4995307;28;20393;-58
2022/04/04 02:34:50;;;;;;;;;;;8.70;56.50;;;;;;4995156;28;19922;-57
2022/04/04 02:37:16;;;;;;;;;;;8.70;56.40;;;;;;4995112;28;19910;-58
2022/04/04 02:39:42;;;;;;;;;;;8.70;56.30;;;;;;4995966;28;19916;-58
2022/04/04 02:42:08;;;;;;;;;;;8.60;56.30;;;;;;4995553;28;19918;-57
2022/04/04 02:44:34;;;;;;;;;;;8.70;56.10;;;;;;4995705;28;20277;-58
2022/04/04 02:46:59;;;;;;;;;;;8.70;55.60;;;;;;4995109;28;20365;-58
2022/04/04 02:49:25;;;;;;;;;;;8.50;55.60;;;;;;4994624;28;19914;-58
2022/04/04 02:51:52;;;;;;;;;;;8.40;56.50;;;;;;4994808;28;19968;-57
2022/04/04 02:54:17;;;;;;;;;;;8.40;56.20;;;;;;4994995;28;20354;-58
2022/04/04 02:56:43;;;;;;;;;;;8.40;56.00;;;;;;4993744;28;19917;-61
2022/04/04 02:59:09;;;;;;;;;;;8.50;55.80;;;;;;4995549;28;19910;-57
2022/04/04 03:01:35;;;;;;;;;;;8.60;55.80;;;;;;4995357;28;19921;-63
2022/04/04 03:04:02;;;;;;;;;;;8.40;56.00;;;;;;4995308;28;19913;-59
2022/04/04 03:06:28;;;;;;;;;;;8.20;56.20;;;;;;4995018;28;20330;-58
2022/04/04 03:08:54;;;;;;;;;;;8.30;56.20;;;;;;4994928;28;19914;-58
2022/04/04 03:11:19;;;;;;;;;;;8.20;56.10;;;;;;4996135;28;19955;-58
2022/04/04 03:13:45;;;;;;;;;;;8.30;55.40;;;;;;4994993;28;19914;-57
2022/04/04 03:16:11;;;;;;;;;;;8.30;55.60;;;;;;4995643;28;19957;-58
2022/04/04 03:18:37;;;;;;;;;;;8.30;55.30;;;;;;4995877;28;20393;-57
2022/04/04 03:21:03;;;;;;;;;;;8.30;55.00;;;;;;4994669;28;20004;-58
2022/04/04 03:23:29;;;;;;;;;;;8.20;54.80;;;;;;5010574;28;19910;-61
2022/04/04 03:25:55;;;;;;;;;;;8.20;54.40;;;;;;5005589;28;19910;-58
2022/04/04 03:28:20;;;;;;;;;;;8.30;54.40;;;;;;4995973;28;19917;-58
2022/04/04 03:30:46;;;;;;;;;;;8.40;53.80;;;;;;4995982;28;19957;-57
2022/04/04 03:33:11;;;;;;;;;;;8.20;54.10;;;;;;4995962;28;19926;-58
2022/04/04 03:35:37;;;;;;;;;;;8.30;54.10;;;;;;4998889;28;19917;-58
2022/04/04 03:38:03;;;;;;;;;;;8.30;53.60;;;;;;5012675;23;19926;-54
2022/04/04 03:40:29;;;;;;;;;;;8.40;53.90;;;;;;4994036;28;19918;-54
2022/04/04 03:42:56;;;;;;;;;;;8.30;53.30;;;;;;4994274;28;20365;-54
2022/04/04 03:45:22;;;;;;;;;;;8.30;53.10;;;;;;4994146;28;19968;-54
2022/04/04 03:47:48;;;;;;;;;;;8.30;52.70;;;;;;4993260;28;20357;-54
2022/04/04 03:50:14;;;;;;;;;;;8.30;52.60;;;;;;4993374;28;20369;-55
2022/04/04 03:52:40;;;;;;;;;;;8.20;52.30;;;;;;4993162;28;20381;-54
2022/04/04 03:55:07;;;;;;;;;;;8.30;52.10;;;;;;4993242;28;19936;-55
2022/04/04 03:57:32;;;;;;;;;;;8.20;52.20;;;;;;4993570;28;20386;-54
2022/04/04 03:59:58;;;;;;;;;;;8.20;52.00;;;;;;4993735;28;19936;-55
2022/04/04 04:02:23;;;;;;;;;;;8.30;52.00;;;;;;4993846;28;19914;-55
2022/04/04 04:04:49;;;;;;;;;;;8.20;52.00;;;;;;4994034;28;19933;-55
2022/04/04 04:07:15;;;;;;;;;;;8.20;51.70;;;;;;4993270;28;20247;-54
2022/04/04 04:09:44;;;;;;;;;;;8.20;51.60;;;;;;4992954;28;19921;-55
2022/04/04 04:12:11;;;;;;;;;;;8.20;51.60;;;;;;4993029;28;19910;-55
2022/04/04 04:14:37;;;;;;;;;;;8.20;51.20;;;;;;4992802;28;20397;-55
2022/04/04 04:17:02;;;;;;;;;;;8.10;51.50;;;;;;4993421;28;19910;-54
2022/04/04 04:22:13;;;;;;;;;;;8.00;50.90;;;;;;4993675;28;19945;-56
2022/04/04 04:24:39;;;;;;;;;;;8.00;51.20;;;;;;4993592;28;19910;-53
2022/04/04 04:27:04;;;;;;;;;;;8.00;51.20;;;;;;4993461;28;20289;-60
2022/04/04 04:29:30;;;;;;;;;;;8.00;51.40;;;;;;4996438;28;19913;-56
2022/04/04 04:31:56;;;;;;;;;;;7.90;51.60;;;;;;4996305;28;19910;-55
2022/04/04 04:34:21;;;;;;;;;;;8.00;51.50;;;;;;4996356;28;20393;-53
2022/04/04 04:36:47;;;;;;;;;;;7.90;51.90;;;;;;4996454;28;19910;-54
2022/04/04 04:39:12;;;;;;;;;;;7.70;52.50;;;;;;4996888;28;19969;-57
2022/04/04 04:41:38;;;;;;;;;;;7.80;52.70;;;;;;4996821;28;19973;-53
2022/04/04 04:44:05;;;;;;;;;;;7.70;53.20;;;;;;4996956;28;19917;-54
2022/04/04 04:46:31;;;;;;;;;;;7.60;53.70;;;;;;4996969;28;19910;-52
2022/04/04 04:48:56;;;;;;;;;;;7.60;53.60;;;;;;4996350;28;20373;-54
2022/04/04 04:51:22;;;;;;;;;;;7.60;53.50;;;;;;4995962;28;19956;-53
2022/04/04 04:53:48;;;;;;;;;;;7.60;53.10;;;;;;4995921;28;19917;-55
2022/04/04 04:56:14;;;;;;;;;;;7.50;53.00;;;;;;4995786;28;19945;-53
2022/04/04 04:58:39;;;;;;;;;;;7.50;53.10;;;;;;4995992;28;20004;-53
2022/04/04 05:01:05;;;;;;;;;;;7.50;53.40;;;;;;4996488;28;20021;-54
2022/04/04 05:03:31;;;;;;;;;;;7.60;53.50;;;;;;4996529;28;19917;-55
2022/04/04 05:05:56;;;;;;;;;;;7.50;53.90;;;;;;4996514;28;19997;-55
2022/04/04 05:08:22;;;;;;;;;;;7.50;53.30;;;;;;4996560;28;19910;-53
2022/04/04 05:10:48;;;;;;;;;;;7.40;53.40;;;;;;4995486;28;19914;-53
2022/04/04 05:13:13;;;;;;;;;;;7.40;53.30;;;;;;4995457;28;19918;-54
2022/04/04 05:15:39;;;;;;;;;;;7.40;52.90;;;;;;4995622;28;19913;-55
2022/04/04 05:18:05;;;;;;;;;;;7.40;52.80;;;;;;4995176;28;19914;-55
2022/04/04 05:20:30;;;;;;;;;;;7.50;52.70;;;;;;4996139;28;19918;-55
2022/04/04 05:22:57;;;;;;;;;;;7.50;52.70;;;;;;4996225;28;19910;-55
2022/04/04 05:25:23;;;;;;;;;;;7.60;52.50;;;;;;4996052;28;19910;-54
2022/04/04 05:27:50;;;;;;;;;;;7.60;52.30;;;;;;4995853;28;19957;-54
2022/04/04 05:30:16;;;;;;;;;;;7.70;52.50;;;;;;4996068;28;19952;-53
2022/04/04 05:32:43;;;;;;;;;;;7.60;52.50;;;;;;4995088;28;19914;-56
2022/04/04 05:35:09;;;;;;;;;;;7.60;52.20;;;;;;4995057;28;19917;-54
2022/04/04 05:37:35;;;;;;;;;;;7.90;56.30;;;;;;4994848;28;19988;-55
2022/04/04 05:40:01;;;;;;;;;;;8.40;55.00;;;;;;4994071;28;20386;-55
2022/04/04 05:42:28;;;;;;;;;;;8.50;54.70;;;;;;4995960;28;19949;-57
2022/04/04 05:44:53;;;;;;;;;;;8.60;52.70;;;;;;4995676;28;20358;-55
2022/04/04 05:47:20;;;;;;;;;;;8.60;50.90;;;;;;4995609;28;19910;-55
2022/04/04 05:49:46;;;;;;;;;;;8.60;50.80;;;;;;4995615;28;20000;-58
2022/04/04 05:52:11;;;;;;;;;;;8.80;50.90;;;;;;4994846;28;20040;-55
2022/04/04 05:54:53;;;;;;;;;;;8.90;50.60;;;;;;4994753;28;19914;-55
2022/04/04 05:57:26;;;;;;;;;;;8.80;50.20;;;;;;4995678;28;19910;-56
2022/04/04 05:59:52;;;;;;;;;;;8.70;50.80;;;;;;4995538;28;19909;-55
2022/04/04 06:02:19;;;;;;;;;;;8.80;51.10;;;;;;4995694;28;20428;-60
2022/04/04 06:04:44;;;;;;;;;;;8.80;49.90;;;;;;4995268;28;20380;-57
2022/04/04 06:07:10;;;;;;;;;;;8.60;50.40;;;;;;4995382;28;19909;-58
2022/04/04 06:09:35;;;;;;;;;;;8.40;50.30;;;;;;4994113;28;19914;-55
2022/04/04 06:12:01;;;;;;;;;;;8.40;50.20;;;;;;4995145;28;19910;-56
2022/04/04 06:14:26;;;;;;;;;;;8.30;51.20;;;;;;4995253;28;19933;-54
2022/04/04 06:16:52;;;;;;;;;;;8.50;51.10;;;;;;4995189;28;19910;-59
2022/04/04 06:19:17;;;;;;;;;;;8.70;50.30;;;;;;4995256;28;20306;-57
2022/04/04 06:21:43;;;;;;;;;;;8.80;50.40;;;;;;4994614;28;20395;-56
2022/04/04 06:24:10;;;;;;;;;;;9.00;49.20;;;;;;4994578;28;19925;-55
2022/04/04 06:26:36;;;;;;;;;;;9.20;49.30;;;;;;4994656;28;19910;-55
2022/04/04 06:29:02;;;;;;;;;;;9.40;49.10;;;;;;4989087;28;19909;-57
2022/04/04 06:31:28;;;;;;;;;;;9.50;48.50;;;;;;4994386;28;19960;-60
2022/04/04 06:33:53;;;;;;;;;;;9.70;48.00;;;;;;4994627;28;19997;-56
2022/04/04 06:36:21;;;;;;;;;;;9.90;48.00;;;;;;4994319;28;19910;-59
2022/04/04 06:38:46;;;;;;;;;;;9.90;47.80;;;;;;4994057;28;19945;-56
2022/04/04 06:41:12;;;;;;;;;;;10.00;47.90;;;;;;4996004;28;20370;-56
2022/04/04 06:43:38;;;;;;;;;;;10.10;48.00;;;;;;5002634;28;19916;-56
2022/04/04 06:46:03;;;;;;;;;;;10.20;47.60;;;;;;5002437;28;20337;-57
2022/04/04 06:48:30;;;;;;;;;;;10.20;47.20;;;;;;5001549;28;20278;-56
2022/04/04 06:50:56;;;;;;;;;;;10.30;47.60;;;;;;4994221;28;20006;-57
2022/04/04 06:53:21;;;;;;;;;;;10.50;47.70;;;;;;4994876;28;19957;-55
2022/04/04 06:55:47;;;;;;;;;;;10.50;47.20;;;;;;4994536;28;20278;-55
2022/04/04 06:58:13;;;;;;;;;;;10.60;47.30;;;;;;4994339;28;20018;-58
2022/04/04 07:00:38;;;;;;;;;;;10.60;47.70;;;;;;4994152;28;19918;-56
2022/04/04 07:03:05;;;;;;;;;;;10.60;48.00;;;;;;4994556;28;19914;-57
2022/04/04 07:05:31;;;;;;;;;;;10.90;47.60;;;;;;4994402;28;20325;-56
2022/04/04 07:07:56;;;;;;;;;;;11.00;47.00;;;;;;4994220;28;19914;-55
2022/04/04 07:10:22;;;;;;;;;;;11.10;45.80;;;;;;4994526;28;19921;-55
2022/04/04 07:12:48;;;;;;;;;;;11.30;45.10;;;;;;4993979;28;19914;-54
2022/04/04 07:15:13;;;;;;;;;;;11.60;45.40;;;;;;4993433;28;19972;-56
2022/04/04 07:17:39;;;;;;;;;;;11.80;44.80;;;;;;4993817;28;19913;-54
2022/04/04 07:20:05;;;;;;;;;;;11.70;45.30;;;;;;4993644;28;19909;-53
2022/04/04 07:22:38;;;;;;;;;;;11.90;45.10;;;;;;4993647;28;19968;-55
2022/04/04 07:25:04;;;;;;;;;;;12.20;44.60;;;;;;4994091;28;20367;-58
2022/04/04 07:27:31;;;;;;;;;;;12.40;44.20;;;;;;4994201;28;20024;-64
2022/04/04 07:29:57;;;;;;;;;;;12.40;43.80;;;;;;4994133;28;20020;-56
2022/04/04 07:32:22;;;;;;;;;;;12.00;43.40;;;;;;4994038;28;19917;-56
2022/04/04 07:34:48;;;;;;;;;;;11.70;43.90;;;;;;4993905;28;19910;-57
2022/04/04 07:37:13;;;;;;;;;;;11.60;44.50;;;;;;4994113;28;19952;-52
2022/04/04 07:39:39;;;;;;;;;;;11.90;44.00;;;;;;4993355;28;19914;-58
2022/04/04 07:42:06;;;;;;;;;;;12.30;44.20;;;;;;4993521;28;19917;-58
2022/04/04 07:44:31;;;;;;;;;;;12.30;42.10;;;;;;4993807;28;19956;-56
2022/04/04 07:46:57;;;;;;;;;;;12.40;42.40;;;;;;4993652;28;19910;-59
2022/04/04 07:49:23;;;;;;;;;;;12.70;42.30;;;;;;4993476;28;19937;-56
2022/04/04 07:51:49;;;;;;;;;;;12.50;41.50;;;;;;4990731;28;20389;-56
2022/04/04 07:54:14;;;;;;;;;;;12.50;42.40;;;;;;4993115;28;19937;-56
2022/04/04 07:56:40;;;;;;;;;;;12.50;42.00;;;;;;4993760;28;19909;-56
2022/04/04 07:59:06;;;;;;;;;;;12.80;40.80;;;;;;4993542;28;20274;-56
2022/04/04 08:01:32;;;;;;;;;;;12.50;40.70;;;;;;4994036;28;19972;-56
2022/04/04 08:03:57;;;;;;;;;;;12.20;40.90;;;;;;4997186;28;20289;-56
2022/04/04 08:06:23;;;;;;;;;;;12.30;41.00;;;;;;4998113;28;19953;-60
2022/04/04 08:08:48;;;;;;;;;;;12.50;40.70;;;;;;4998102;28;19967;-57
2022/04/04 08:11:14;;;;;;;;;;;12.10;40.20;;;;;;4997839;28;19917;-56
2022/04/04 08:13:44;;;;;;;;;;;11.70;41.20;;;;;;4998000;28;19910;-57
2022/04/04 08:16:09;;;;;;;;;;;11.30;42.30;;;;;;4997345;28;19910;-56
2022/04/04 08:18:35;;;;;;;;;;;11.00;43.50;;;;;;4997100;28;19910;-56
2022/04/04 08:21:01;;;;;;;;;;;11.10;44.10;;;;;;4997196;28;19922;-56
2022/04/04 08:23:31;;;;;;;;;;;11.30;44.40;;;;;;4997357;28;20017;-57
2022/04/04 08:25:57;;;;;;;;;;;11.50;43.40;;;;;;4997522;28;19964;-56
2022/04/04 08:28:23;;;;;;;;;;;11.60;43.70;;;;;;4997146;28;20360;-57
2022/04/04 08:30:50;;;;;;;;;;;11.70;43.60;;;;;;4997569;28;19996;-55
2022/04/04 08:33:16;;;;;;;;;;;11.70;42.70;;;;;;4995935;28;19910;-55
2022/04/04 08:35:42;;;;;;;;;;;11.60;43.40;;;;;;4997183;28;19917;-56
2022/04/04 08:38:08;;;;;;;;;;;11.40;44.10;;;;;;4996952;28;19922;-56
2022/04/04 08:40:35;;;;;;;;;;;11.20;43.10;;;;;;4996957;28;19965;-57
2022/04/04 08:43:02;;;;;;;;;;;11.20;43.60;;;;;;4997308;28;19909;-58
2022/04/04 08:45:28;;;;;;;;;;;11.50;43.20;;;;;;4997132;28;19949;-64
2022/04/04 08:47:54;;;;;;;;;;;12.00;42.10;;;;;;4996880;28;19917;-63
2022/04/04 08:50:20;;;;;;;;;;;12.30;39.70;;;;;;4995513;28;19910;-65
2022/04/04 08:52:46;;;;;;;;;;;12.60;40.90;;;;;;4996741;28;20017;-58
2022/04/04 08:55:13;;;;;;;;;;;12.80;40.60;;;;;;4996975;28;20299;-62
2022/04/04 08:57:39;;;;;;;;;;;13.00;40.70;;;;;;4996727;28;20016;-59
2022/04/04 09:00:05;;;;;;;;;;;12.90;40.70;;;;;;4996647;28;19952;-58
2022/04/04 09:02:32;;;;;;;;;;;13.20;40.80;;;;;;4996512;28;19910;-58
2022/04/04 09:05:02;;;;;;;;;;;13.10;39.40;;;;;;4996487;28;19917;-57
2022/04/04 09:07:28;;;;;;;;;;;13.10;41.10;;;;;;4996794;28;19917;-57
2022/04/04 09:09:53;;;;;;;;;;;13.00;41.00;;;;;;4996508;28;19947;-57
2022/04/04 09:12:23;;;;;;;;;;;12.90;40.70;;;;;;4996320;28;19914;-56
2022/04/04 09:14:49;;;;;;;;;;;12.80;40.90;;;;;;4996216;28;19921;-57
2022/04/04 09:17:16;;;;;;;;;;;12.70;41.80;;;;;;4996525;28;19910;-55
2022/04/04 09:19:42;;;;;;;;;;;12.60;42.80;;;;;;4996356;28;19952;-55
2022/04/04 09:22:08;;;;;;;;;;;12.70;41.60;;;;;;4996099;28;19917;-57
2022/04/04 09:24:55;;;;;;;;;;;13.00;41.80;;;;;;4996324;28;19957;-58
2022/04/04 09:27:23;;;;;;;;;;;13.50;42.60;;;;;;4996289;28;19953;-63
2022/04/04 09:29:50;;;;;;;;;;;13.50;39.90;;;;;;4996207;28;19917;-57
2022/04/04 09:32:15;;;;;;;;;;;12.90;40.70;;;;;;4996086;28;19952;-57
2022/04/04 09:34:52;;;;;;;;;;;12.60;42.70;;;;;;4996173;28;19914;-58
2022/04/04 09:37:19;;;;;;;;;;;12.80;43.30;;;;;;4996120;28;19930;-58
2022/04/04 09:39:45;;;;;;;;;;;12.90;42.10;;;;;;4995564;28;19957;-58
2022/04/04 09:42:17;;;;;;;;;;;12.60;42.00;;;;;;4996110;28;19964;-59
2022/04/04 09:45:02;;;;;;;;;;;12.80;43.70;;;;;;4996063;28;19910;-56
2022/04/04 09:47:47;;;;;;;;;;;13.00;42.60;;;;;;4995914;28;19937;-57
2022/04/04 09:50:44;;;;;;;;;;;13.20;43.10;;;;;;4995743;28;19910;-67
2022/04/04 09:53:11;;;;;;;;;;;13.50;42.20;;;;;;4999408;28;19917;-66
2022/04/04 09:55:38;;;;;;;;;;;13.60;42.00;;;;;;4994640;28;19965;-62
2022/04/04 09:58:05;;;;;;;;;;;13.50;41.80;;;;;;4995877;28;19913;-66
2022/04/04 10:00:34;;;;;;;;;;;13.40;42.40;;;;;;4995525;28;19957;-62
2022/04/04 10:03:00;;;;;;;;;;;13.30;42.80;;;;;;4995374;28;20425;-60
2022/04/04 10:05:26;;;;;;;;;;;13.30;42.50;;;;;;4995995;28;19960;-61
2022/04/04 10:07:52;;;;;;;;;;;13.50;42.90;;;;;;4995660;28;19993;-64
2022/04/04 10:10:18;;;;;;;;;;;13.60;41.50;;;;;;4995409;28;20277;-59
2022/04/04 10:12:44;;;;;;;;;;;13.60;42.00;;;;;;4995917;28;19996;-57
2022/04/04 10:15:10;;;;;;;;;;;13.60;41.50;;;;;;4995439;28;19910;-60
2022/04/04 10:17:37;;;;;;;;;;;13.60;42.00;;;;;;4995167;28;19909;-60
2022/04/04 10:20:02;;;;;;;;;;;13.20;41.80;;;;;;4995455;28;19909;-63
2022/04/04 10:22:28;;;;;;;;;;;12.40;42.70;;;;;;4995420;28;20346;-67
2022/04/04 10:24:56;;;;;;;;;;;12.20;44.30;;;;;;4995010;28;19913;-61
2022/04/04 10:27:22;;;;;;;;;;;12.60;44.90;;;;;;4995325;28;19910;-64
2022/04/04 10:29:48;;;;;;;;;;;12.90;42.60;;;;;;4994971;28;19909;-64
2022/04/04 10:32:24;;;;;;;;;;;12.90;42.80;;;;;;4995046;28;19914;-67
2022/04/04 10:34:51;;;;;;;;;;;13.00;42.30;;;;;;4993697;28;19910;-63
2022/04/04 10:37:19;;;;;;;;;;;13.50;43.70;;;;;;4995075;28;19910;-56
2022/04/04 10:39:45;;;;;;;;;;;13.50;41.50;;;;;;4994848;28;19969;-57
2022/04/04 10:42:30;;;;;;;;;;;13.60;41.80;;;;;;4995015;28;19918;-56
2022/04/04 10:45:09;;;;;;;;;;;13.70;41.80;;;;;;4994836;28;20008;-56
2022/04/04 10:47:36;;;;;;;;;;;14.00;42.30;;;;;;4995431;28;19965;-57
2022/04/04 10:50:17;;;;;;;;;;;14.10;41.20;;;;;;4995662;28;19910;-57
2022/04/04 10:52:43;;;;;;;;;;;13.50;38.50;;;;;;4996012;28;19910;-56
2022/04/04 10:55:25;;;;;;;;;;;13.30;41.80;;;;;;4995674;28;20354;-56
2022/04/04 10:57:52;;;;;;;;;;;13.50;41.80;;;;;;4995338;28;20005;-57
2022/04/04 11:00:18;;;;;;;;;;;13.10;39.50;;;;;;4995010;28;19909;-58
2022/04/04 11:02:44;;;;;;;;;;;13.40;39.90;;;;;;4995027;28;19910;-57
2022/04/04 11:08:05;;;;;;;;;;;13.50;38.90;;;;;;4994665;28;19917;-57
2022/04/04 11:10:48;;;;;;;;;;;13.40;39.90;;;;;;4993855;28;19965;-55
2022/04/04 11:13:17;;;;;;;;;;;13.60;40.50;;;;;;4994445;28;19910;-57
2022/04/04 11:15:51;;;;;;;;;;;13.30;37.40;;;;;;4994329;28;19910;-56
2022/04/04 11:18:17;;;;;;;;;;;13.50;39.20;;;;;;4993585;28;20269;-61
2022/04/04 11:20:50;;;;;;;;;;;13.80;37.90;;;;;;4994188;28;19917;-58
2022/04/04 11:23:16;;;;;;;;;;;13.90;38.20;;;;;;4994067;28;19972;-58
2022/04/04 11:25:55;;;;;;;;;;;13.70;37.10;;;;;;4992903;28;20302;-57
2022/04/04 11:28:24;;;;;;;;;;;13.30;40.10;;;;;;4993719;28;19909;-57
2022/04/04 11:30:53;;;;;;;;;;;13.40;41.40;;;;;;4994398;28;20012;-57
2022/04/04 11:33:22;;;;;;;;;;;13.70;39.50;;;;;;4991801;28;19917;-58
2022/04/04 11:35:51;;;;;;;;;;;14.00;39.20;;;;;;4993540;28;19910;-57
2022/04/04 11:38:19;;;;;;;;;;;14.20;39.40;;;;;;4994889;28;19965;-55
2022/04/04 11:40:50;;;;;;;;;;;14.40;38.80;;;;;;4994303;28;19922;-60
2022/04/04 11:43:19;;;;;;;;;;;14.60;39.20;;;;;;4997119;28;20342;-58
2022/04/04 11:45:46;;;;;;;;;;;14.60;39.10;;;;;;4997237;28;19914;-63
2022/04/04 11:48:23;;;;;;;;;;;14.50;38.30;;;;;;4997597;28;20380;-68
2022/04/04 11:50:51;;;;;;;;;;;14.00;37.90;;;;;;4997649;28;19917;-58
2022/04/04 11:53:22;;;;;;;;;;;13.80;39.90;;;;;;4997635;28;20259;-55
2022/04/04 11:55:48;;;;;;;;;;;13.90;40.20;;;;;;4997845;28;19917;-57
2022/04/04 11:58:14;;;;;;;;;;;14.00;41.60;;;;;;4997533;28;19910;-59
2022/04/04 12:00:42;;;;;;;;;;;14.10;39.70;;;;;;4997480;28;20312;-56
2022/04/04 12:03:12;;;;;;;;;;;13.80;39.50;;;;;;4997608;28;19917;-55
2022/04/04 12:05:38;;;;;;;;;;;13.60;39.70;;;;;;4996954;28;20009;-56
2022/04/04 12:08:04;;;;;;;;;;;13.10;40.20;;;;;;4997329;28;20090;-57
2022/04/04 12:10:31;;;;;;;;;;;12.90;41.60;;;;;;4997440;28;19910;-57
2022/04/04 12:13:01;;;;;;;;;;;13.20;41.00;;;;;;4997196;28;19909;-56
2022/04/04 12:15:28;;;;;;;;;;;13.40;40.40;;;;;;4997222;28;19946;-57
2022/04/04 12:17:53;;;;;;;;;;;13.30;40.60;;;;;;4997294;28;20322;-57
2022/04/04 12:20:19;;;;;;;;;;;13.40;39.00;;;;;;4997119;28;19909;-57
2022/04/04 12:25:28;;;;;;;;;;;13.20;41.50;;;;;;4997391;28;19945;-56
2022/04/04 12:27:58;;;;;;;;;;;13.70;41.10;;;;;;4996912;28;20374;-56
2022/04/04 12:30:31;;;;;;;;;;;14.00;39.20;;;;;;4996899;28;19984;-57
2022/04/04 12:33:10;;;;;;;;;;;14.30;38.30;;;;;;4996595;28;19953;-56
2022/04/04 12:35:54;;;;;;;;;;;14.40;38.00;;;;;;4996820;28;20329;-55
2022/04/04 12:38:30;;;;;;;;;;;14.10;37.10;;;;;;4996599;28;19926;-57
2022/04/04 12:41:02;;;;;;;;;;;14.40;37.60;;;;;;4996530;28;20099;-57
2022/04/04 12:43:28;;;;;;;;;;;14.50;36.10;;;;;;4996641;28;19926;-56
2022/04/04 12:45:53;;;;;;;;;;;14.20;34.80;;;;;;4996691;28;19973;-57
2022/04/04 12:48:19;;;;;;;;;;;13.60;36.80;;;;;;4995963;28;19910;-56
2022/04/04 12:50:46;;;;;;;;;;;13.70;36.90;;;;;;4996159;28;19909;-56
2022/04/04 12:53:12;;;;;;;;;;;13.60;37.60;;;;;;4996382;28;20271;-55
2022/04/04 12:55:38;;;;;;;;;;;13.50;37.80;;;;;;4996422;28;19916;-55
2022/04/04 12:58:18;;;;;;;;;;;13.30;40.30;;;;;;4996144;28;19914;-57
2022/04/04 13:00:44;;;;;;;;;;;13.40;40.50;;;;;;4996116;28;20021;-55
2022/04/04 13:03:30;;;;;;;;;;;12.80;41.20;;;;;;4996372;28;19945;-57
2022/04/04 13:05:56;;;;;;;;;;;12.40;43.40;;;;;;4996076;28;20016;-58
2022/04/04 13:08:23;;;;;;;;;;;12.60;45.30;;;;;;4994053;28;19913;-56
2022/04/04 13:11:08;;;;;;;;;;;13.10;45.30;;;;;;4996086;28;20374;-55
2022/04/04 13:13:34;;;;;;;;;;;13.30;44.90;;;;;;4995742;28;19910;-54
2022/04/04 13:16:01;;;;;;;;;;;13.50;46.70;;;;;;4995682;28;19917;-54
2022/04/04 13:18:26;;;;;;;;;;;13.40;45.80;;;;;;4995552;28;19917;-55
2022/04/04 13:20:52;;;;;;;;;;;13.20;45.60;;;;;;4995552;28;19918;-53
2022/04/04 13:23:18;;;;;;;;;;;13.30;45.70;;;;;;4994867;28;19925;-54
2022/04/04 13:25:45;;;;;;;;;;;13.50;45.10;;;;;;4992986;28;19953;-56
2022/04/04 13:28:11;;;;;;;;;;;13.70;45.50;;;;;;4994244;28;20294;-60
2022/04/04 13:30:40;;;;;;;;;;;13.70;44.40;;;;;;4992293;28;19911;-56
2022/04/04 13:33:09;;;;;;;;;;;13.70;44.50;;;;;;4993193;28;19910;-60
2022/04/04 13:35:35;;;;;;;;;;;12.80;45.10;;;;;;4994093;28;19924;-59
2022/04/04 13:38:01;;;;;;;;;;;12.90;46.80;;;;;;4994303;28;19921;-60
2022/04/04 13:40:27;;;;;;;;;;;13.00;46.10;;;;;;4993820;28;19957;-59
2022/04/04 13:42:52;;;;;;;;;;;13.20;45.60;;;;;;4993909;28;19960;-57
2022/04/04 13:45:18;;;;;;;;;;;13.10;43.30;;;;;;4993719;28;19922;-56
2022/04/04 13:47:43;;;;;;;;;;;13.10;44.40;;;;;;4991935;28;19913;-54
2022/04/04 13:50:09;;;;;;;;;;;13.20;44.80;;;;;;4993227;28;20020;-54
2022/04/04 13:52:34;;;;;;;;;;;13.30;43.50;;;;;;4993735;28;19964;-57
2022/04/04 13:55:00;;;;;;;;;;;13.40;43.40;;;;;;4993901;28;20015;-56
2022/04/04 13:57:26;;;;;;;;;;;13.60;44.00;;;;;;4993966;28;19910;-57
2022/04/04 13:59:51;;;;;;;;;;;13.30;41.60;;;;;;4992538;28;20358;-55
2022/04/04 14:02:18;;;;;;;;;;;13.40;43.00;;;;;;4993531;28;19953;-59
2022/04/04 14:04:43;;;;;;;;;;;13.50;43.10;;;;;;4992309;28;19917;-55
2022/04/04 14:07:10;;;;;;;;;;;13.40;43.40;;;;;;4993725;28;19913;-54
2022/04/04 14:09:36;;;;;;;;;;;13.20;43.70;;;;;;4993702;28;19933;-55
2022/04/04 14:12:03;;;;;;;;;;;13.30;42.70;;;;;;4993274;28;20350;-54
2022/04/04 14:14:30;;;;;;;;;;;13.20;41.80;;;;;;4993632;28;19914;-53
2022/04/04 14:16:57;;;;;;;;;;;13.00;43.10;;;;;;4993275;28;20005;-55
2022/04/04 14:19:23;;;;;;;;;;;13.10;42.70;;;;;;4993553;28;19909;-57
2022/04/04 14:21:48;;;;;;;;;;;13.10;42.30;;;;;;4993795;28;19926;-60
2022/04/04 14:24:14;;;;;;;;;;;13.20;43.00;;;;;;4993929;28;20290;-54
2022/04/04 14:26:39;;;;;;;;;;;13.40;42.70;;;;;;4993734;28;19916;-55
2022/04/04 14:29:05;;;;;;;;;;;13.40;42.70;;;;;;4988352;28;20278;-55
2022/04/04 14:31:31;;;;;;;;;;;13.50;43.10;;;;;;4993817;28;19917;-59
2022/04/04 14:33:58;;;;;;;;;;;13.30;40.90;;;;;;4993528;28;19909;-54